Whitestone, Texas
Current Conditions -  °F | °C
As of 11:35 PM on Wednesday 26 Nov 2014 (Local Time) from KRYW Reporting Station
Clear Clear  
Wind Chill: 53°   Ceiling: Unl
Heat Index: 53°   Visibility: 10mi
Dew Point: 33°   Wind: 13mph
Humidity: 46%   Direction: 20°NNE
Pressure: 30.35"   Gusts: 16mph
Location:  30.558°N, 97.9247°W
Report Text: KRYW 270535Z AUTO 02011G14KT 10SM CLR 12/01 A3035 RMK AO2 T01180005
Loading
Personal Weather Stations






























Interactive Weather Map New forecast layout! Learn more

10-Day Weather Forecast

Advertisements
Track Severe Weather on mobile